Terminal Aerodrome Forecast
Issued by NWS

Home | Current Version | Previous Version | Text Only | Print | Product List | Glossary On
Versions: 1 2 3 4 5 6 7 8 9 10 11 12 13
000
FTUS45 KABQ 301200 RRA
TAFGUP
TAF
KGUP 301213Z 3012/3112 08008KT 4SM -SN BR SCT009 OVC015
      TEMPO 3012/3016 2SM -SN BR OVC009
     FM301600 08007KT 2SM -SNRA BR SCT003 OVC007
     FM302100 08009KT 5SM -RA BR SCT005 OVC010
     FM310200 12007KT 3SM -SN BR BKN005=

USA.gov is the U.S. government's official web portal to all federal, state and local government web resources and services.